sensor_id;sensor_type;location;lat;lon;timestamp;temperature;humidity
37938;DHT22;23763;48.130;11.602;2024-01-06T00:01:11;6.70;99.90
37938;DHT22;23763;48.130;11.602;2024-01-06T00:03:40;6.70;99.90
37938;DHT22;23763;48.130;11.602;2024-01-06T00:06:06;6.70;99.90
37938;DHT22;23763;48.130;11.602;2024-01-06T00:08:32;6.60;99.90
37938;DHT22;23763;48.130;11.602;2024-01-06T00:10:57;6.70;99.90
37938;DHT22;23763;48.130;11.602;2024-01-06T00:13:23;6.70;99.90
37938;DHT22;23763;48.130;11.602;2024-01-06T00:15:49;6.60;99.90
37938;DHT22;23763;48.130;11.602;2024-01-06T00:18:14;6.60;99.90
37938;DHT22;23763;48.130;11.602;2024-01-06T00:20:40;6.60;99.90
37938;DHT22;23763;48.130;11.602;2024-01-06T00:23:05;6.50;99.90
37938;DHT22;23763;48.130;11.602;2024-01-06T00:25:31;6.50;99.90
37938;DHT22;23763;48.130;11.602;2024-01-06T00:27:57;6.50;99.90
37938;DHT22;23763;48.130;11.602;2024-01-06T00:30:22;6.50;99.90
37938;DHT22;23763;48.130;11.602;2024-01-06T00:32:48;6.50;99.90
37938;DHT22;23763;48.130;11.602;2024-01-06T00:35:14;6.50;99.90
37938;DHT22;23763;48.130;11.602;2024-01-06T00:37:39;6.40;99.90
37938;DHT22;23763;48.130;11.602;2024-01-06T00:40:05;6.40;99.90
37938;DHT22;23763;48.130;11.602;2024-01-06T00:42:31;6.50;99.90
37938;DHT22;23763;48.130;11.602;2024-01-06T00:44:56;6.40;99.90
37938;DHT22;23763;48.130;11.602;2024-01-06T00:47:22;6.40;99.90
37938;DHT22;23763;48.130;11.602;2024-01-06T00:49:49;6.40;99.90
37938;DHT22;23763;48.130;11.602;2024-01-06T00:52:15;6.40;99.90
37938;DHT22;23763;48.130;11.602;2024-01-06T00:54:41;6.40;99.90
37938;DHT22;23763;48.130;11.602;2024-01-06T00:57:06;6.40;99.90
37938;DHT22;23763;48.130;11.602;2024-01-06T00:59:32;6.50;99.90
37938;DHT22;23763;48.130;11.602;2024-01-06T01:01:58;6.40;99.90
37938;DHT22;23763;48.130;11.602;2024-01-06T01:04:23;6.30;99.90
37938;DHT22;23763;48.130;11.602;2024-01-06T01:06:49;6.30;99.90
37938;DHT22;23763;48.130;11.602;2024-01-06T01:09:14;6.30;99.90
37938;DHT22;23763;48.130;11.602;2024-01-06T01:11:41;6.30;99.90
37938;DHT22;23763;48.130;11.602;2024-01-06T01:14:07;6.30;99.90
37938;DHT22;23763;48.130;11.602;2024-01-06T01:16:32;6.30;99.90
37938;DHT22;23763;48.130;11.602;2024-01-06T01:18:58;6.30;99.90
37938;DHT22;23763;48.130;11.602;2024-01-06T01:21:24;6.30;99.90
37938;DHT22;23763;48.130;11.602;2024-01-06T01:23:49;6.40;99.90
37938;DHT22;23763;48.130;11.602;2024-01-06T01:26:15;6.30;99.90
37938;DHT22;23763;48.130;11.602;2024-01-06T01:28:41;6.30;99.90
37938;DHT22;23763;48.130;11.602;2024-01-06T01:31:06;6.30;99.90
37938;DHT22;23763;48.130;11.602;2024-01-06T01:33:32;6.30;99.90
37938;DHT22;23763;48.130;11.602;2024-01-06T01:35:57;6.40;99.90
37938;DHT22;23763;48.130;11.602;2024-01-06T01:38:23;6.30;99.90
37938;DHT22;23763;48.130;11.602;2024-01-06T01:40:49;6.20;99.90
37938;DHT22;23763;48.130;11.602;2024-01-06T01:43:21;6.30;99.90
37938;DHT22;23763;48.130;11.602;2024-01-06T01:45:53;6.20;99.90
37938;DHT22;23763;48.130;11.602;2024-01-06T01:48:19;6.30;99.90
37938;DHT22;23763;48.130;11.602;2024-01-06T01:50:46;6.30;99.90
37938;DHT22;23763;48.130;11.602;2024-01-06T01:53:12;6.30;99.90
37938;DHT22;23763;48.130;11.602;2024-01-06T01:55:40;6.20;99.90
37938;DHT22;23763;48.130;11.602;2024-01-06T01:58:06;6.10;99.90
37938;DHT22;23763;48.130;11.602;2024-01-06T02:00:32;6.10;99.90
37938;DHT22;23763;48.130;11.602;2024-01-06T02:02:59;6.20;99.90
37938;DHT22;23763;48.130;11.602;2024-01-06T02:05:25;6.20;99.90
37938;DHT22;23763;48.130;11.602;2024-01-06T02:07:51;6.20;99.90
37938;DHT22;23763;48.130;11.602;2024-01-06T02:10:17;6.10;99.90
37938;DHT22;23763;48.130;11.602;2024-01-06T02:12:43;6.10;99.90
37938;DHT22;23763;48.130;11.602;2024-01-06T02:15:09;6.10;99.90
37938;DHT22;23763;48.130;11.602;2024-01-06T02:17:34;6.10;99.90
37938;DHT22;23763;48.130;11.602;2024-01-06T02:20:00;6.10;99.90
37938;DHT22;23763;48.130;11.602;2024-01-06T02:22:26;5.90;99.90
37938;DHT22;23763;48.130;11.602;2024-01-06T02:24:51;5.80;99.90
37938;DHT22;23763;48.130;11.602;2024-01-06T02:27:17;5.80;99.90
37938;DHT22;23763;48.130;11.602;2024-01-06T02:29:43;5.80;99.90
37938;DHT22;23763;48.130;11.602;2024-01-06T02:32:09;5.80;99.90
37938;DHT22;23763;48.130;11.602;2024-01-06T02:34:34;5.90;99.90
37938;DHT22;23763;48.130;11.602;2024-01-06T02:37:00;5.90;99.90
37938;DHT22;23763;48.130;11.602;2024-01-06T02:39:25;6.00;99.90
37938;DHT22;23763;48.130;11.602;2024-01-06T02:41:51;6.10;99.90
37938;DHT22;23763;48.130;11.602;2024-01-06T02:44:17;6.10;99.90
37938;DHT22;23763;48.130;11.602;2024-01-06T02:46:42;6.00;99.90
37938;DHT22;23763;48.130;11.602;2024-01-06T02:49:08;6.00;99.90
37938;DHT22;23763;48.130;11.602;2024-01-06T02:51:34;6.00;99.90
37938;DHT22;23763;48.130;11.602;2024-01-06T02:53:59;6.00;99.90
37938;DHT22;23763;48.130;11.602;2024-01-06T02:56:25;5.80;99.90
37938;DHT22;23763;48.130;11.602;2024-01-06T02:58:51;5.70;99.90
37938;DHT22;23763;48.130;11.602;2024-01-06T03:01:17;5.70;99.90
37938;DHT22;23763;48.130;11.602;2024-01-06T03:03:43;5.90;99.90
37938;DHT22;23763;48.130;11.602;2024-01-06T03:06:08;5.90;99.90
37938;DHT22;23763;48.130;11.602;2024-01-06T03:08:34;5.80;99.90
37938;DHT22;23763;48.130;11.602;2024-01-06T03:11:00;5.70;99.90
37938;DHT22;23763;48.130;11.602;2024-01-06T03:13:27;5.80;99.90
37938;DHT22;23763;48.130;11.602;2024-01-06T03:15:53;5.60;99.90
37938;DHT22;23763;48.130;11.602;2024-01-06T03:18:18;5.70;99.90
37938;DHT22;23763;48.130;11.602;2024-01-06T03:20:44;5.60;99.90
37938;DHT22;23763;48.130;11.602;2024-01-06T03:23:09;5.60;99.90
37938;DHT22;23763;48.130;11.602;2024-01-06T03:25:35;5.70;99.90
37938;DHT22;23763;48.130;11.602;2024-01-06T03:28:01;5.70;99.90
37938;DHT22;23763;48.130;11.602;2024-01-06T03:30:26;5.70;99.90
37938;DHT22;23763;48.130;11.602;2024-01-06T03:32:52;5.70;99.90
37938;DHT22;23763;48.130;11.602;2024-01-06T03:35:17;5.90;99.90
37938;DHT22;23763;48.130;11.602;2024-01-06T03:37:43;5.70;99.90
37938;DHT22;23763;48.130;11.602;2024-01-06T03:40:09;5.70;99.90
37938;DHT22;23763;48.130;11.602;2024-01-06T03:42:35;5.80;99.90
37938;DHT22;23763;48.130;11.602;2024-01-06T03:45:02;5.70;99.90
37938;DHT22;23763;48.130;11.602;2024-01-06T03:47:29;5.60;99.90
37938;DHT22;23763;48.130;11.602;2024-01-06T03:49:54;5.50;99.90
37938;DHT22;23763;48.130;11.602;2024-01-06T03:52:20;5.70;99.90
37938;DHT22;23763;48.130;11.602;2024-01-06T03:54:45;5.70;99.90
37938;DHT22;23763;48.130;11.602;2024-01-06T03:57:11;5.90;99.90
37938;DHT22;23763;48.130;11.602;2024-01-06T03:59:36;6.00;99.90
37938;DHT22;23763;48.130;11.602;2024-01-06T04:02:02;5.70;99.90
37938;DHT22;23763;48.130;11.602;2024-01-06T04:04:28;5.70;99.90
37938;DHT22;23763;48.130;11.602;2024-01-06T04:06:53;5.80;99.90
37938;DHT22;23763;48.130;11.602;2024-01-06T04:09:19;5.70;99.90
37938;DHT22;23763;48.130;11.602;2024-01-06T04:11:45;5.70;99.90
37938;DHT22;23763;48.130;11.602;2024-01-06T04:14:10;5.90;99.90
37938;DHT22;23763;48.130;11.602;2024-01-06T04:16:36;5.80;99.90
37938;DHT22;23763;48.130;11.602;2024-01-06T04:19:01;5.70;99.90
37938;DHT22;23763;48.130;11.602;2024-01-06T04:21:27;5.60;99.90
37938;DHT22;23763;48.130;11.602;2024-01-06T04:23:52;5.70;99.90
37938;DHT22;23763;48.130;11.602;2024-01-06T04:26:18;5.50;99.90
37938;DHT22;23763;48.130;11.602;2024-01-06T04:28:44;5.50;99.90
37938;DHT22;23763;48.130;11.602;2024-01-06T04:31:09;5.60;99.90
37938;DHT22;23763;48.130;11.602;2024-01-06T04:33:35;5.50;99.90
37938;DHT22;23763;48.130;11.602;2024-01-06T04:36:02;5.40;99.90
37938;DHT22;23763;48.130;11.602;2024-01-06T04:38:27;5.50;99.90
37938;DHT22;23763;48.130;11.602;2024-01-06T04:40:53;5.30;99.90
37938;DHT22;23763;48.130;11.602;2024-01-06T04:43:19;5.40;99.90
37938;DHT22;23763;48.130;11.602;2024-01-06T04:45:44;5.40;99.90
37938;DHT22;23763;48.130;11.602;2024-01-06T04:48:10;5.40;99.90
37938;DHT22;23763;48.130;11.602;2024-01-06T04:50:36;5.50;99.90
37938;DHT22;23763;48.130;11.602;2024-01-06T04:53:01;5.50;99.90
37938;DHT22;23763;48.130;11.602;2024-01-06T04:55:27;5.50;99.90
37938;DHT22;23763;48.130;11.602;2024-01-06T04:57:53;5.40;99.90
37938;DHT22;23763;48.130;11.602;2024-01-06T05:00:19;5.30;99.90
37938;DHT22;23763;48.130;11.602;2024-01-06T05:02:44;5.30;99.90
37938;DHT22;23763;48.130;11.602;2024-01-06T05:05:10;5.20;99.90
37938;DHT22;23763;48.130;11.602;2024-01-06T05:07:36;5.10;99.90
37938;DHT22;23763;48.130;11.602;2024-01-06T05:10:01;5.10;99.90
37938;DHT22;23763;48.130;11.602;2024-01-06T05:12:27;5.10;99.90
37938;DHT22;23763;48.130;11.602;2024-01-06T05:14:53;5.10;99.90
37938;DHT22;23763;48.130;11.602;2024-01-06T05:17:19;5.00;99.90
37938;DHT22;23763;48.130;11.602;2024-01-06T05:19:44;5.10;99.90
37938;DHT22;23763;48.130;11.602;2024-01-06T05:22:10;5.10;99.90
37938;DHT22;23763;48.130;11.602;2024-01-06T05:24:36;5.10;99.90
37938;DHT22;23763;48.130;11.602;2024-01-06T05:27:02;5.10;99.90
37938;DHT22;23763;48.130;11.602;2024-01-06T05:29:27;5.00;99.90
37938;DHT22;23763;48.130;11.602;2024-01-06T05:31:53;5.00;99.90
37938;DHT22;23763;48.130;11.602;2024-01-06T05:34:19;5.00;99.90
37938;DHT22;23763;48.130;11.602;2024-01-06T05:36:44;5.10;99.90
37938;DHT22;23763;48.130;11.602;2024-01-06T05:39:10;5.10;99.90
37938;DHT22;23763;48.130;11.602;2024-01-06T05:41:39;5.00;99.90
37938;DHT22;23763;48.130;11.602;2024-01-06T05:44:05;5.10;99.90
37938;DHT22;23763;48.130;11.602;2024-01-06T05:46:30;5.00;99.90
37938;DHT22;23763;48.130;11.602;2024-01-06T05:48:56;5.00;99.90
37938;DHT22;23763;48.130;11.602;2024-01-06T05:51:23;4.90;99.90
37938;DHT22;23763;48.130;11.602;2024-01-06T05:53:49;5.00;99.90
37938;DHT22;23763;48.130;11.602;2024-01-06T05:56:24;5.00;99.90
37938;DHT22;23763;48.130;11.602;2024-01-06T05:58:51;5.00;99.90
37938;DHT22;23763;48.130;11.602;2024-01-06T06:01:17;4.90;99.90
37938;DHT22;23763;48.130;11.602;2024-01-06T06:03:43;5.00;99.90
37938;DHT22;23763;48.130;11.602;2024-01-06T06:06:08;5.00;99.90
37938;DHT22;23763;48.130;11.602;2024-01-06T06:08:34;5.00;99.90
37938;DHT22;23763;48.130;11.602;2024-01-06T06:11:00;5.00;99.90
37938;DHT22;23763;48.130;11.602;2024-01-06T06:13:39;5.10;99.90
37938;DHT22;23763;48.130;11.602;2024-01-06T06:16:06;5.00;99.90
37938;DHT22;23763;48.130;11.602;2024-01-06T06:18:32;5.00;99.90
37938;DHT22;23763;48.130;11.602;2024-01-06T06:20:59;5.20;99.90
37938;DHT22;23763;48.130;11.602;2024-01-06T06:23:25;5.00;99.90
37938;DHT22;23763;48.130;11.602;2024-01-06T06:25:51;4.90;99.90
37938;DHT22;23763;48.130;11.602;2024-01-06T06:28:16;4.90;99.90
37938;DHT22;23763;48.130;11.602;2024-01-06T06:30:42;4.80;99.90
37938;DHT22;23763;48.130;11.602;2024-01-06T06:33:08;4.90;99.90
37938;DHT22;23763;48.130;11.602;2024-01-06T06:35:34;4.90;99.90
37938;DHT22;23763;48.130;11.602;2024-01-06T06:37:59;4.90;99.90
37938;DHT22;23763;48.130;11.602;2024-01-06T06:40:25;5.00;99.90
37938;DHT22;23763;48.130;11.602;2024-01-06T06:42:50;5.00;99.90
37938;DHT22;23763;48.130;11.602;2024-01-06T06:45:16;5.00;99.90
37938;DHT22;23763;48.130;11.602;2024-01-06T06:47:44;4.90;99.90
37938;DHT22;23763;48.130;11.602;2024-01-06T06:50:10;4.90;99.90
37938;DHT22;23763;48.130;11.602;2024-01-06T06:52:35;4.90;99.90
37938;DHT22;23763;48.130;11.602;2024-01-06T06:55:01;4.90;99.90
37938;DHT22;23763;48.130;11.602;2024-01-06T06:57:27;5.00;99.90
37938;DHT22;23763;48.130;11.602;2024-01-06T06:59:52;5.10;99.90
37938;DHT22;23763;48.130;11.602;2024-01-06T07:02:18;5.10;99.90
37938;DHT22;23763;48.130;11.602;2024-01-06T07:04:43;5.20;99.90
37938;DHT22;23763;48.130;11.602;2024-01-06T07:07:09;5.10;99.90
37938;DHT22;23763;48.130;11.602;2024-01-06T07:09:35;5.20;99.90
37938;DHT22;23763;48.130;11.602;2024-01-06T07:12:00;5.00;99.90
37938;DHT22;23763;48.130;11.602;2024-01-06T07:14:26;5.10;99.90
37938;DHT22;23763;48.130;11.602;2024-01-06T07:16:51;5.00;99.90
37938;DHT22;23763;48.130;11.602;2024-01-06T07:19:17;5.00;99.90
37938;DHT22;23763;48.130;11.602;2024-01-06T07:21:43;5.00;99.90
37938;DHT22;23763;48.130;11.602;2024-01-06T07:24:08;4.90;99.90
37938;DHT22;23763;48.130;11.602;2024-01-06T07:26:34;5.00;99.90
37938;DHT22;23763;48.130;11.602;2024-01-06T07:28:59;5.00;99.90
37938;DHT22;23763;48.130;11.602;2024-01-06T07:31:25;5.00;99.90
37938;DHT22;23763;48.130;11.602;2024-01-06T07:33:51;5.10;99.90
37938;DHT22;23763;48.130;11.602;2024-01-06T07:36:16;5.00;99.90
37938;DHT22;23763;48.130;11.602;2024-01-06T07:38:42;5.00;99.90
37938;DHT22;23763;48.130;11.602;2024-01-06T07:41:10;5.00;99.90
37938;DHT22;23763;48.130;11.602;2024-01-06T07:43:36;5.10;99.90
37938;DHT22;23763;48.130;11.602;2024-01-06T07:46:02;5.10;99.90
37938;DHT22;23763;48.130;11.602;2024-01-06T07:48:29;5.10;99.90
37938;DHT22;23763;48.130;11.602;2024-01-06T07:50:54;5.10;99.90
37938;DHT22;23763;48.130;11.602;2024-01-06T07:53:20;5.30;99.90
37938;DHT22;23763;48.130;11.602;2024-01-06T07:55:45;5.20;99.90
37938;DHT22;23763;48.130;11.602;2024-01-06T07:58:11;5.20;99.90
37938;DHT22;23763;48.130;11.602;2024-01-06T08:00:37;5.30;99.90
37938;DHT22;23763;48.130;11.602;2024-01-06T08:03:03;5.30;99.90
37938;DHT22;23763;48.130;11.602;2024-01-06T08:05:31;5.20;99.90
37938;DHT22;23763;48.130;11.602;2024-01-06T08:07:57;5.30;99.90
37938;DHT22;23763;48.130;11.602;2024-01-06T08:10:23;5.20;99.90
37938;DHT22;23763;48.130;11.602;2024-01-06T08:12:48;5.10;99.90
37938;DHT22;23763;48.130;11.602;2024-01-06T08:15:14;5.10;99.90
37938;DHT22;23763;48.130;11.602;2024-01-06T08:17:40;5.20;99.90
37938;DHT22;23763;48.130;11.602;2024-01-06T08:20:07;5.20;99.90
37938;DHT22;23763;48.130;11.602;2024-01-06T08:22:33;5.10;99.90
37938;DHT22;23763;48.130;11.602;2024-01-06T08:24:59;5.10;99.90
37938;DHT22;23763;48.130;11.602;2024-01-06T08:27:25;5.20;99.90
37938;DHT22;23763;48.130;11.602;2024-01-06T08:29:50;5.10;99.90
37938;DHT22;23763;48.130;11.602;2024-01-06T08:32:16;5.00;99.90
37938;DHT22;23763;48.130;11.602;2024-01-06T08:34:42;5.30;99.90
37938;DHT22;23763;48.130;11.602;2024-01-06T08:37:08;5.20;99.90
37938;DHT22;23763;48.130;11.602;2024-01-06T08:39:33;5.20;99.90
37938;DHT22;23763;48.130;11.602;2024-01-06T08:41:59;5.30;99.90
37938;DHT22;23763;48.130;11.602;2024-01-06T08:44:25;5.20;99.90
37938;DHT22;23763;48.130;11.602;2024-01-06T08:46:50;5.20;99.90
37938;DHT22;23763;48.130;11.602;2024-01-06T08:49:16;5.20;99.90
37938;DHT22;23763;48.130;11.602;2024-01-06T08:51:46;5.20;99.90
37938;DHT22;23763;48.130;11.602;2024-01-06T08:54:12;5.20;99.90
37938;DHT22;23763;48.130;11.602;2024-01-06T08:56:37;5.30;99.90
37938;DHT22;23763;48.130;11.602;2024-01-06T08:59:03;5.30;99.90
37938;DHT22;23763;48.130;11.602;2024-01-06T09:01:29;5.30;99.90
37938;DHT22;23763;48.130;11.602;2024-01-06T09:03:57;5.30;99.90
37938;DHT22;23763;48.130;11.602;2024-01-06T09:06:23;5.20;99.90
37938;DHT22;23763;48.130;11.602;2024-01-06T09:08:49;5.30;99.90
37938;DHT22;23763;48.130;11.602;2024-01-06T09:11:14;5.30;99.90
37938;DHT22;23763;48.130;11.602;2024-01-06T09:13:41;5.30;99.90
37938;DHT22;23763;48.130;11.602;2024-01-06T09:16:06;5.40;99.90
37938;DHT22;23763;48.130;11.602;2024-01-06T09:18:32;5.40;99.90
37938;DHT22;23763;48.130;11.602;2024-01-06T09:20:57;5.40;99.90
37938;DHT22;23763;48.130;11.602;2024-01-06T09:23:26;5.40;99.90
37938;DHT22;23763;48.130;11.602;2024-01-06T09:25:51;5.40;99.90
37938;DHT22;23763;48.130;11.602;2024-01-06T09:28:21;5.30;99.90
37938;DHT22;23763;48.130;11.602;2024-01-06T09:30:47;5.60;99.90
37938;DHT22;23763;48.130;11.602;2024-01-06T09:33:12;5.40;99.90
37938;DHT22;23763;48.130;11.602;2024-01-06T09:35:41;5.40;99.90
37938;DHT22;23763;48.130;11.602;2024-01-06T09:38:07;5.40;99.90
37938;DHT22;23763;48.130;11.602;2024-01-06T09:40:34;5.40;99.90
37938;DHT22;23763;48.130;11.602;2024-01-06T09:43:00;5.20;99.90
37938;DHT22;23763;48.130;11.602;2024-01-06T09:45:28;5.30;99.90
37938;DHT22;23763;48.130;11.602;2024-01-06T09:47:54;5.10;99.90
37938;DHT22;23763;48.130;11.602;2024-01-06T09:50:21;5.30;99.90
37938;DHT22;23763;48.130;11.602;2024-01-06T09:52:48;5.30;99.90
37938;DHT22;23763;48.130;11.602;2024-01-06T09:55:26;5.40;99.90
37938;DHT22;23763;48.130;11.602;2024-01-06T09:57:52;5.40;99.90
37938;DHT22;23763;48.130;11.602;2024-01-06T10:00:19;5.50;99.90
37938;DHT22;23763;48.130;11.602;2024-01-06T10:02:45;5.40;99.90
37938;DHT22;23763;48.130;11.602;2024-01-06T10:05:12;5.40;99.90
37938;DHT22;23763;48.130;11.602;2024-01-06T10:07:41;5.50;99.90
37938;DHT22;23763;48.130;11.602;2024-01-06T10:10:07;5.50;99.90
37938;DHT22;23763;48.130;11.602;2024-01-06T10:12:33;5.50;99.90
37938;DHT22;23763;48.130;11.602;2024-01-06T10:14:59;5.50;99.90
37938;DHT22;23763;48.130;11.602;2024-01-06T10:17:24;5.40;99.90
37938;DHT22;23763;48.130;11.602;2024-01-06T10:19:51;5.50;99.90
37938;DHT22;23763;48.130;11.602;2024-01-06T10:22:18;5.60;99.90
37938;DHT22;23763;48.130;11.602;2024-01-06T10:24:44;5.90;99.90
37938;DHT22;23763;48.130;11.602;2024-01-06T10:27:10;5.60;99.90
37938;DHT22;23763;48.130;11.602;2024-01-06T10:29:35;5.50;99.90
37938;DHT22;23763;48.130;11.602;2024-01-06T10:32:01;5.60;99.90
37938;DHT22;23763;48.130;11.602;2024-01-06T10:34:28;5.60;99.90
37938;DHT22;23763;48.130;11.602;2024-01-06T10:36:54;5.80;99.90
37938;DHT22;23763;48.130;11.602;2024-01-06T10:39:21;5.70;99.90
37938;DHT22;23763;48.130;11.602;2024-01-06T10:41:50;5.50;99.90
37938;DHT22;23763;48.130;11.602;2024-01-06T10:44:17;5.60;99.90
37938;DHT22;23763;48.130;11.602;2024-01-06T10:46:44;5.60;99.90
37938;DHT22;23763;48.130;11.602;2024-01-06T10:49:11;5.50;99.90
37938;DHT22;23763;48.130;11.602;2024-01-06T10:51:38;5.50;99.90
37938;DHT22;23763;48.130;11.602;2024-01-06T10:54:05;5.60;99.90
37938;DHT22;23763;48.130;11.602;2024-01-06T10:56:37;5.50;99.90
37938;DHT22;23763;48.130;11.602;2024-01-06T10:59:07;5.60;99.90
37938;DHT22;23763;48.130;11.602;2024-01-06T11:01:34;5.80;99.90
37938;DHT22;23763;48.130;11.602;2024-01-06T11:04:02;5.80;99.90
37938;DHT22;23763;48.130;11.602;2024-01-06T11:06:31;5.70;99.90
37938;DHT22;23763;48.130;11.602;2024-01-06T11:11:31;5.80;99.90
37938;DHT22;23763;48.130;11.602;2024-01-06T11:14:18;5.90;99.90
37938;DHT22;23763;48.130;11.602;2024-01-06T11:16:45;5.90;99.90
37938;DHT22;23763;48.130;11.602;2024-01-06T11:24:51;5.70;99.90
37938;DHT22;23763;48.130;11.602;2024-01-06T11:27:24;5.70;99.90
37938;DHT22;23763;48.130;11.602;2024-01-06T11:29:54;5.60;99.90
37938;DHT22;23763;48.130;11.602;2024-01-06T11:34:50;5.80;99.90
37938;DHT22;23763;48.130;11.602;2024-01-06T11:37:28;5.80;99.90
37938;DHT22;23763;48.130;11.602;2024-01-06T11:40:00;5.90;99.90
37938;DHT22;23763;48.130;11.602;2024-01-06T11:42:32;6.00;99.90
37938;DHT22;23763;48.130;11.602;2024-01-06T11:45:02;6.00;99.90
37938;DHT22;23763;48.130;11.602;2024-01-06T11:47:28;6.00;99.90
37938;DHT22;23763;48.130;11.602;2024-01-06T11:49:56;6.10;99.90
37938;DHT22;23763;48.130;11.602;2024-01-06T11:52:24;6.10;99.90
37938;DHT22;23763;48.130;11.602;2024-01-06T11:54:52;6.00;99.90
37938;DHT22;23763;48.130;11.602;2024-01-06T11:57:19;5.90;99.90
37938;DHT22;23763;48.130;11.602;2024-01-06T11:59:45;5.90;99.90
37938;DHT22;23763;48.130;11.602;2024-01-06T12:02:12;5.90;99.90
37938;DHT22;23763;48.130;11.602;2024-01-06T12:04:38;5.90;99.90
37938;DHT22;23763;48.130;11.602;2024-01-06T12:07:10;5.90;99.90
37938;DHT22;23763;48.130;11.602;2024-01-06T12:09:39;5.90;99.90
37938;DHT22;23763;48.130;11.602;2024-01-06T12:12:05;5.80;99.90
37938;DHT22;23763;48.130;11.602;2024-01-06T12:14:32;5.80;99.90
37938;DHT22;23763;48.130;11.602;2024-01-06T12:17:00;5.80;99.90
37938;DHT22;23763;48.130;11.602;2024-01-06T12:19:32;5.80;99.90
37938;DHT22;23763;48.130;11.602;2024-01-06T12:21:58;5.90;99.90
37938;DHT22;23763;48.130;11.602;2024-01-06T12:24:24;5.90;99.90
37938;DHT22;23763;48.130;11.602;2024-01-06T12:26:52;5.80;99.90
37938;DHT22;23763;48.130;11.602;2024-01-06T12:29:18;5.70;99.90
37938;DHT22;23763;48.130;11.602;2024-01-06T12:31:45;5.70;99.90
37938;DHT22;23763;48.130;11.602;2024-01-06T12:34:11;5.50;99.90
37938;DHT22;23763;48.130;11.602;2024-01-06T12:36:38;5.50;99.90
37938;DHT22;23763;48.130;11.602;2024-01-06T12:39:05;5.50;99.90
37938;DHT22;23763;48.130;11.602;2024-01-06T12:41:30;5.50;99.90
37938;DHT22;23763;48.130;11.602;2024-01-06T12:43:59;5.40;99.90
37938;DHT22;23763;48.130;11.602;2024-01-06T12:46:26;5.50;99.90
37938;DHT22;23763;48.130;11.602;2024-01-06T12:48:52;5.50;99.90
37938;DHT22;23763;48.130;11.602;2024-01-06T12:51:17;5.50;99.90
37938;DHT22;23763;48.130;11.602;2024-01-06T12:53:43;5.40;99.90
37938;DHT22;23763;48.130;11.602;2024-01-06T12:56:09;5.30;99.90
37938;DHT22;23763;48.130;11.602;2024-01-06T12:58:41;5.30;99.90
37938;DHT22;23763;48.130;11.602;2024-01-06T13:01:07;5.20;99.90
37938;DHT22;23763;48.130;11.602;2024-01-06T13:03:33;5.10;99.90
37938;DHT22;23763;48.130;11.602;2024-01-06T13:06:00;5.00;99.90
37938;DHT22;23763;48.130;11.602;2024-01-06T13:08:26;5.00;99.90
37938;DHT22;23763;48.130;11.602;2024-01-06T13:10:53;5.00;99.90
37938;DHT22;23763;48.130;11.602;2024-01-06T13:13:19;5.00;99.90
37938;DHT22;23763;48.130;11.602;2024-01-06T13:15:45;4.90;99.90
37938;DHT22;23763;48.130;11.602;2024-01-06T13:18:12;4.90;99.90
37938;DHT22;23763;48.130;11.602;2024-01-06T13:20:41;4.90;99.90
37938;DHT22;23763;48.130;11.602;2024-01-06T13:23:07;4.90;99.90
37938;DHT22;23763;48.130;11.602;2024-01-06T13:25:34;4.90;99.90
37938;DHT22;23763;48.130;11.602;2024-01-06T13:28:00;4.90;99.90
37938;DHT22;23763;48.130;11.602;2024-01-06T13:30:25;5.00;99.90
37938;DHT22;23763;48.130;11.602;2024-01-06T13:32:52;5.00;99.90
37938;DHT22;23763;48.130;11.602;2024-01-06T13:35:20;5.00;99.90
37938;DHT22;23763;48.130;11.602;2024-01-06T13:37:46;4.80;99.90
37938;DHT22;23763;48.130;11.602;2024-01-06T13:40:13;4.90;99.90
37938;DHT22;23763;48.130;11.602;2024-01-06T13:42:40;4.80;99.90
37938;DHT22;23763;48.130;11.602;2024-01-06T13:45:06;4.80;99.90
37938;DHT22;23763;48.130;11.602;2024-01-06T13:47:32;4.80;99.90
37938;DHT22;23763;48.130;11.602;2024-01-06T13:49:58;4.90;99.90
37938;DHT22;23763;48.130;11.602;2024-01-06T13:52:24;4.90;99.90
37938;DHT22;23763;48.130;11.602;2024-01-06T13:54:50;4.90;99.90
37938;DHT22;23763;48.130;11.602;2024-01-06T13:57:16;4.80;99.90
37938;DHT22;23763;48.130;11.602;2024-01-06T13:59:42;4.90;99.90
37938;DHT22;23763;48.130;11.602;2024-01-06T14:02:08;4.90;99.90
37938;DHT22;23763;48.130;11.602;2024-01-06T14:04:35;4.80;99.90
37938;DHT22;23763;48.130;11.602;2024-01-06T14:07:01;4.80;99.90
37938;DHT22;23763;48.130;11.602;2024-01-06T14:09:30;4.80;99.90
37938;DHT22;23763;48.130;11.602;2024-01-06T14:11:55;4.70;99.90
37938;DHT22;23763;48.130;11.602;2024-01-06T14:14:21;4.70;99.90
37938;DHT22;23763;48.130;11.602;2024-01-06T14:16:47;4.70;99.90
37938;DHT22;23763;48.130;11.602;2024-01-06T14:19:13;4.60;99.90
37938;DHT22;23763;48.130;11.602;2024-01-06T14:21:39;4.60;99.90
37938;DHT22;23763;48.130;11.602;2024-01-06T14:24:05;4.70;99.90
37938;DHT22;23763;48.130;11.602;2024-01-06T14:26:32;4.70;99.90
37938;DHT22;23763;48.130;11.602;2024-01-06T14:28:58;4.80;99.90
37938;DHT22;23763;48.130;11.602;2024-01-06T14:31:25;4.80;99.90
37938;DHT22;23763;48.130;11.602;2024-01-06T14:33:52;4.70;99.90
37938;DHT22;23763;48.130;11.602;2024-01-06T14:36:18;4.70;99.90
37938;DHT22;23763;48.130;11.602;2024-01-06T14:38:43;4.60;99.90
37938;DHT22;23763;48.130;11.602;2024-01-06T14:41:09;4.50;99.90
37938;DHT22;23763;48.130;11.602;2024-01-06T14:43:35;4.50;99.90
37938;DHT22;23763;48.130;11.602;2024-01-06T14:46:01;4.30;99.90
37938;DHT22;23763;48.130;11.602;2024-01-06T14:48:26;4.40;99.90
37938;DHT22;23763;48.130;11.602;2024-01-06T14:50:52;4.60;99.90
37938;DHT22;23763;48.130;11.602;2024-01-06T14:53:18;4.40;99.90
37938;DHT22;23763;48.130;11.602;2024-01-06T14:55:43;4.40;99.90
37938;DHT22;23763;48.130;11.602;2024-01-06T14:58:09;4.40;99.90
37938;DHT22;23763;48.130;11.602;2024-01-06T15:00:37;4.40;99.90
37938;DHT22;23763;48.130;11.602;2024-01-06T15:03:03;4.30;99.90
37938;DHT22;23763;48.130;11.602;2024-01-06T15:05:29;4.20;99.90
37938;DHT22;23763;48.130;11.602;2024-01-06T15:07:55;4.20;99.90
37938;DHT22;23763;48.130;11.602;2024-01-06T15:10:21;4.30;99.90
37938;DHT22;23763;48.130;11.602;2024-01-06T15:12:47;4.20;99.90
37938;DHT22;23763;48.130;11.602;2024-01-06T15:15:13;4.20;99.90
37938;DHT22;23763;48.130;11.602;2024-01-06T15:17:39;4.20;99.90
37938;DHT22;23763;48.130;11.602;2024-01-06T15:20:05;4.20;99.90
37938;DHT22;23763;48.130;11.602;2024-01-06T15:22:31;4.10;99.90
37938;DHT22;23763;48.130;11.602;2024-01-06T15:24:57;4.10;99.90
37938;DHT22;23763;48.130;11.602;2024-01-06T15:27:22;4.10;99.90
37938;DHT22;23763;48.130;11.602;2024-01-06T15:29:48;4.10;99.90
37938;DHT22;23763;48.130;11.602;2024-01-06T15:32:14;4.10;99.90
37938;DHT22;23763;48.130;11.602;2024-01-06T15:34:39;4.00;99.90